KPOB

Pope Field

Airport
ICAO code
KPOB
Summary
ICAO Region
NAM
ICAO Territory
Location

Fayetteville, North Carolina,

Coordinates
35° 10' 15" N , 79° 0' 52" W
KCC
Metar
Observation
KPOB 092007Z AUTO 04005KT 10SM BKN034 13/05 A3017 RMK AO2 PRESFR SLP220
Station
Pope Air Force Base
Date/Time
2022-12-09 20:07:00
Wind direction
40°
Wind speed
05 kts
Lowest cloud amount
broken clouds
Temperature
13°C
Dew point
5°C
Humidity
58%
Weather condition
n/a

Description

Pope Field, formerly known as Pope Air Force Base, is a military facility located 19 km northwest of the central business district of Fayetteville, in Cumberland County, North Carolina.

Climatology

Humid “subtropical” climate (Köppen climate classification Cfa) - characterized by hot, humid summers and cool winters. Significant amounts of precipitation occur in all seasons in most areas. Winter rainfall (and sometimes snowfall) is associated with large storms that the westerlies steer from west to east. Most summer rainfall occurs during thunderstorms and occasional tropical storms (hurricanes).

Runways

Designator Length Width Surface Rops
49/229 914 18 ASPH No/No
5/23 2286 46 PEM Yes/Yes

Airport map

Aerial View

SKYbrary Partners:

Safety knowledge contributed by: